Main page
METAR-TAF:

METAR-TAF

Airports :

Nador, Morocco

Nador International Airport

latitude: 34-59-20N, longitude: 003-01-42W, elevation: 175 m

Current weather observation

The report was made 1 hour and 12 minutes ago, at 03:00 UTC
Wind 3 kt from the West/Southwest
Temperature 2°C
Humidity 93%
Pressure 1019 hPa
Visibility 10 km or more
no clouds below 1500 m and no cumulonimbus

METAR: GMMW 180300Z 25003KT CAVOK 02/01 Q1019 NOSIG

Time: 04:12 (04:12 UTC)

Forecast

The report was made 5 hours and 12 minutes ago, at 23:00 UTC
Forecast valid from 18 at 00 UTC to 19 at 06 UTC
Wind 2 kt from variable directions
Visibility 10 km or more
no clouds below 1500 m and no cumulonimbus
Becoming
from 18 at 10 UTC to 18 at 12 UTC
Wind 7 kt from the Northeast
Probability 40%
from 18 at 23 UTC to 19 at 06 UTC
Visibility: 2000 m
Scattered clouds at a height of 1300 ft
mist

TAF: GMMW 172300Z 1800/1906 VRB02KT CAVOK BECMG 1810/1812 04007KT PROB40 1823/1906 2000 BR SCT013

Weather observations and forecasts of more than 4000 airports (METAR and TAF reports).

The available stations are represented by yellow and red dots on the map.

Hover mouse over dot to see the name of the station.

Then click to see weather observations and forecasts.

To change the map : click on the green buttons with a black cross to zoom in, on the green button with a dash to zoom out, or on the green arrows for adjacent maps.


METAR-TAF: